createdAt,value
2019-02-26T00:03:28.639Z,99883.65
2019-02-26T00:07:34.114Z,99889.28
2019-02-26T00:11:40.233Z,99888.66
2019-02-26T00:15:46.014Z,99880.68
2019-02-26T00:19:51.761Z,99879.93
2019-02-26T00:23:56.649Z,99881.02
2019-02-26T00:28:01.537Z,99886.02
2019-02-26T00:32:07.112Z,99880.77
2019-02-26T00:36:13.729Z,99879.92
2019-02-26T00:40:20.336Z,99871.20
2019-02-26T00:44:27.342Z,99872.83
2019-02-26T00:48:33.632Z,99872.83
2019-02-26T00:52:39.213Z,99874.03
2019-02-26T00:56:45.104Z,99866.73
2019-02-26T01:00:49.992Z,99865.77
2019-02-26T01:04:54.885Z,99870.16
2019-02-26T01:09:01.845Z,99867.20
2019-02-26T01:13:08.920Z,99866.38
2019-02-26T01:17:14.855Z,99858.33
2019-02-26T01:21:24.142Z,99849.08
2019-02-26T01:25:26.990Z,99845.02
2019-02-26T01:29:32.349Z,99844.55
2019-02-26T01:33:37.336Z,99848.06
2019-02-26T01:37:42.225Z,99844.00
2019-02-26T01:41:47.919Z,99850.80
2019-02-26T01:45:55.382Z,99845.02
2019-02-26T01:50:00.393Z,99841.23
2019-02-26T01:54:07.387Z,99838.55
2019-02-26T01:58:15.809Z,99837.34
2019-02-26T02:02:20.276Z,99836.97
2019-02-26T02:06:25.069Z,99839.56
2019-02-26T02:10:29.955Z,99835.96
2019-02-26T02:14:34.841Z,99831.12
2019-02-26T02:18:43.764Z,99842.09
2019-02-26T02:22:46.387Z,99839.09
2019-02-26T02:26:53.543Z,99834.03
2019-02-26T02:30:57.850Z,99837.62
2019-02-26T02:35:04.398Z,99831.30
2019-02-26T02:39:12.923Z,99819.10
2019-02-26T02:43:17.980Z,99821.83
2019-02-26T02:47:25.039Z,99823.49
2019-02-26T02:51:31.473Z,99813.70
2019-02-26T02:55:37.770Z,99810.31
2019-02-26T02:59:42.461Z,99816.47
2019-02-26T03:03:47.740Z,99811.30
2019-02-26T03:07:56.260Z,99787.25
2019-02-26T03:12:00.532Z,99777.80
2019-02-26T03:16:05.411Z,99779.22
2019-02-26T03:20:14.282Z,99778.55
2019-02-26T03:24:19.173Z,99770.43
2019-02-26T03:28:24.068Z,99765.52
2019-02-26T03:32:28.960Z,99769.84
2019-02-26T03:36:35.066Z,99767.16
2019-02-26T03:40:40.437Z,99756.93
2019-02-26T03:44:47.038Z,99745.48
2019-02-26T03:48:52.076Z,99731.45
2019-02-26T03:52:56.953Z,99719.49
2019-02-26T03:57:01.918Z,99720.05
2019-02-26T04:01:08.418Z,99729.33
2019-02-26T04:05:14.531Z,99726.05
2019-02-26T04:09:21.881Z,99734.55
2019-02-26T04:13:25.999Z,99737.09
2019-02-26T04:17:33.541Z,99729.03
2019-02-26T04:22:15.256Z,99741.63
2019-02-26T04:26:35.592Z,99752.06
2019-02-26T04:30:56.513Z,99744.73
2019-02-26T04:35:02.856Z,99741.42
2019-02-26T04:39:26.171Z,99741.83
2019-02-26T04:43:42.749Z,99740.96
2019-02-26T04:47:58.323Z,99743.30
2019-02-26T04:52:05.578Z,99752.96
2019-02-26T04:56:12.766Z,99748.88
2019-02-26T05:00:16.297Z,99745.78
2019-02-26T05:04:21.177Z,99748.38
2019-02-26T05:08:26.243Z,99746.05
2019-02-26T05:12:34.154Z,99746.20
2019-02-26T05:16:40.149Z,99744.30
2019-02-26T05:20:48.128Z,99753.95
2019-02-26T05:24:52.806Z,99748.13
2019-02-26T05:28:57.495Z,99755.45
2019-02-26T05:33:03.489Z,99765.79
2019-02-26T05:37:10.998Z,99754.68
2019-02-26T05:41:15.891Z,99750.84
2019-02-26T05:45:21.994Z,99765.06
2019-02-26T05:49:27.356Z,99769.86
2019-02-26T05:53:32.250Z,99763.40
2019-02-26T05:57:37.136Z,99768.42
2019-02-26T06:01:43.769Z,99776.98
2019-02-26T06:05:51.354Z,99785.42
2019-02-26T06:09:56.425Z,99782.73
2019-02-26T06:14:06.696Z,99781.08
2019-02-26T06:18:08.447Z,99780.30
2019-02-26T06:22:16.943Z,99769.61
2019-02-26T06:26:19.902Z,99774.36
2019-02-26T06:30:24.797Z,99781.29
2019-02-26T06:34:29.694Z,99781.75
2019-02-26T06:38:35.052Z,99782.47
2019-02-26T06:42:40.391Z,99778.38
2019-02-26T06:46:45.332Z,99775.38
2019-02-26T06:50:50.252Z,99777.46
2019-02-26T06:54:58.062Z,99774.36
2019-02-26T06:59:05.765Z,99772.03
2019-02-26T07:03:11.357Z,99774.48
2019-02-26T07:07:16.240Z,99769.41
2019-02-26T07:11:21.137Z,99763.33
2019-02-26T07:15:28.810Z,99766.26
2019-02-26T07:19:33.251Z,99765.42
2019-02-26T07:23:40.001Z,99767.23
2019-02-26T07:27:44.972Z,99758.82
2019-02-26T07:31:51.723Z,99759.52
2019-02-26T07:35:57.410Z,99763.16
2019-02-26T07:40:05.234Z,99758.66
2019-02-26T07:44:15.438Z,99753.27
2019-02-26T07:48:18.692Z,99753.02
2019-02-26T07:52:24.348Z,99755.78
2019-02-26T07:56:32.077Z,99758.63
2019-02-26T08:00:37.680Z,99762.72
2019-02-26T08:04:43.641Z,99760.39
2019-02-26T08:08:48.967Z,99755.44
2019-02-26T08:12:53.896Z,99757.87
2019-02-26T08:17:01.339Z,99752.47
2019-02-26T08:21:05.402Z,99754.84
2019-02-26T08:25:11.305Z,99749.39
2019-02-26T08:29:16.213Z,99739.61
2019-02-26T08:33:21.104Z,99746.67
2019-02-26T08:37:26.009Z,99752.86
2019-02-26T08:41:30.917Z,99743.84
2019-02-26T08:45:35.808Z,99745.22
2019-02-26T08:49:42.649Z,99735.27
2019-02-26T08:53:49.406Z,99737.92
2019-02-26T08:57:56.543Z,99742.70
2019-02-26T09:02:01.331Z,99742.26
2019-02-26T09:06:12.869Z,99746.59
2019-02-26T09:10:22.709Z,99751.32
2019-02-26T09:14:25.403Z,99752.16
2019-02-26T09:18:31.539Z,99746.86
2019-02-26T09:22:36.898Z,99738.88
2019-02-26T09:26:41.804Z,99735.23
2019-02-26T09:30:46.691Z,99733.29
2019-02-26T09:34:52.100Z,99730.05
2019-02-26T09:38:58.171Z,99732.45
2019-02-26T09:43:03.078Z,99733.58
2019-02-26T09:47:07.962Z,99735.49
2019-02-26T09:51:14.767Z,99730.87
2019-02-26T09:55:19.511Z,99739.73
2019-02-26T09:59:26.320Z,99740.98
2019-02-26T10:03:35.656Z,99743.20
2019-02-26T10:07:38.731Z,99739.83
2019-02-26T10:11:45.192Z,99737.37
2019-02-26T10:15:50.382Z,99739.42
2019-02-26T10:19:56.972Z,99735.38
2019-02-26T10:24:02.793Z,99736.27
2019-02-26T10:28:11.153Z,99728.45
2019-02-26T10:32:15.067Z,99726.52
2019-02-26T10:36:19.956Z,99728.52
2019-02-26T10:40:34.285Z,99731.94
2019-02-26T10:44:31.701Z,99733.45
2019-02-26T10:48:36.633Z,99729.36
2019-02-26T10:52:41.509Z,99724.96
2019-02-26T10:56:46.657Z,99730.28
2019-02-26T11:00:54.800Z,99720.84
2019-02-26T11:04:58.911Z,99722.96
2019-02-26T11:09:05.315Z,99724.66
2019-02-26T11:13:12.996Z,99722.20
2019-02-26T11:17:20.750Z,99723.52
2019-02-26T11:21:25.038Z,99729.39
2019-02-26T11:25:29.939Z,99730.55
2019-02-26T11:29:36.399Z,99722.42
2019-02-26T11:33:41.424Z,99720.98
2019-02-26T11:37:47.288Z,99732.94
2019-02-26T11:41:54.563Z,99722.97
2019-02-26T11:46:01.488Z,99695.38
2019-02-26T11:50:11.751Z,99716.34
2019-02-26T11:54:17.721Z,99721.92
2019-02-26T11:58:24.286Z,99711.15
2019-02-26T12:02:33.395Z,99708.76
2019-02-26T12:06:35.931Z,99709.47
2019-02-26T12:10:40.856Z,99705.58
2019-02-26T12:14:48.333Z,99690.33
2019-02-26T12:18:52.349Z,99700.67
2019-02-26T12:22:57.246Z,99701.75
2019-02-26T12:27:02.151Z,99699.39
2019-02-26T12:31:09.912Z,99699.58
2019-02-26T12:35:15.894Z,99689.68
2019-02-26T12:39:22.145Z,99687.19
2019-02-26T12:43:26.971Z,99681.48
2019-02-26T12:47:31.865Z,99686.05
2019-02-26T12:51:36.766Z,99668.70
2019-02-26T12:55:42.686Z,99667.16
2019-02-26T12:59:47.749Z,99667.06
2019-02-26T13:03:54.908Z,99656.88
2019-02-26T13:07:59.250Z,99655.50
2019-02-26T13:12:04.221Z,99659.70
2019-02-26T13:16:09.119Z,99652.34
2019-02-26T13:20:16.048Z,99650.05
2019-02-26T13:24:26.106Z,99638.23
2019-02-26T13:28:29.728Z,99630.36
2019-02-26T13:32:54.107Z,99628.64
2019-02-26T13:36:43.650Z,99625.19
2019-02-26T13:40:48.003Z,99621.09
2019-02-26T13:44:52.887Z,99617.75
2019-02-26T13:48:57.795Z,99614.19
2019-02-26T13:53:02.699Z,99605.97
2019-02-26T13:57:09.161Z,99586.49
2019-02-26T14:01:14.265Z,99593.62
2019-02-26T14:05:19.149Z,99586.08
2019-02-26T14:09:24.291Z,99581.95
2019-02-26T14:13:29.191Z,99579.05
2019-02-26T14:17:34.089Z,99569.83
2019-02-26T14:21:38.986Z,99575.47
2019-02-26T14:25:43.884Z,99571.75
2019-02-26T14:29:48.777Z,99568.95
2019-02-26T14:33:53.695Z,99560.99
2019-02-26T14:37:58.590Z,99554.36
2019-02-26T14:42:03.495Z,99539.38
2019-02-26T14:46:08.388Z,99535.61
2019-02-26T14:50:15.225Z,99538.35
2019-02-26T14:54:20.300Z,99537.28
2019-02-26T14:58:25.205Z,99526.11
2019-02-26T15:02:30.098Z,99528.70
2019-02-26T15:06:34.983Z,99523.46
2019-02-26T15:10:39.880Z,99523.55
2019-02-26T15:14:44.785Z,99518.97
2019-02-26T15:18:49.704Z,99509.44
2019-02-26T15:22:54.585Z,99518.00
2019-02-26T15:26:59.469Z,99507.98
2019-02-26T15:31:04.383Z,99506.75
2019-02-26T15:35:09.446Z,99514.91
2019-02-26T15:39:14.541Z,99503.25
2019-02-26T15:43:19.442Z,99502.66
2019-02-26T15:47:24.329Z,99497.72
2019-02-26T15:51:29.262Z,99497.20
2019-02-26T15:55:34.179Z,99486.47
2019-02-26T15:59:39.090Z,99486.36
2019-02-26T16:03:43.992Z,99490.09
2019-02-26T16:07:48.877Z,99490.19
2019-02-26T16:11:53.781Z,99491.45
2019-02-26T16:15:58.679Z,99487.02
2019-02-26T16:20:10.451Z,99487.86
2019-02-26T16:24:15.353Z,99486.20
2019-02-26T16:28:21.328Z,99490.56
2019-02-26T16:32:26.233Z,99494.50
2019-02-26T16:36:31.606Z,99485.86
2019-02-26T16:40:37.112Z,99497.55
2019-02-26T16:44:42.281Z,99495.23
2019-02-26T16:48:47.176Z,99499.91
2019-02-26T16:52:52.070Z,99493.30
2019-02-26T16:56:56.972Z,99491.51
2019-02-26T17:01:01.875Z,99502.72
2019-02-26T17:05:14.331Z,99489.08
2019-02-26T17:09:19.040Z,99506.75
2019-02-26T17:13:24.473Z,99507.55
2019-02-26T17:17:29.547Z,99504.03
2019-02-26T17:21:34.449Z,99504.65
2019-02-26T17:25:39.349Z,99507.02
2019-02-26T17:29:44.239Z,99503.38
2019-02-26T17:33:49.132Z,99510.81
2019-02-26T17:37:54.064Z,99520.30
2019-02-26T17:41:58.927Z,99516.66
2019-02-26T17:46:03.998Z,99516.44
2019-02-26T17:50:17.667Z,99514.20
2019-02-26T17:54:22.569Z,99514.48
2019-02-26T17:58:27.477Z,99521.89
2019-02-26T18:02:32.400Z,99524.84
2019-02-26T18:06:37.287Z,99523.05
2019-02-26T18:10:42.178Z,99526.17
2019-02-26T18:14:47.076Z,99533.92
2019-02-26T18:18:51.988Z,99531.19
2019-02-26T18:22:59.927Z,99538.13
2019-02-26T18:27:03.669Z,99541.09
2019-02-26T18:31:08.672Z,99537.38
2019-02-26T18:35:13.569Z,99544.90
2019-02-26T18:39:22.366Z,99551.57
2019-02-26T18:43:25.198Z,99542.95
2019-02-26T18:47:30.093Z,99545.63
2019-02-26T18:51:36.409Z,99552.41
2019-02-26T18:55:41.651Z,99554.39
2019-02-26T18:59:46.544Z,99552.25
2019-02-26T19:03:51.443Z,99545.81
2019-02-26T19:07:56.346Z,99546.45
2019-02-26T19:12:01.237Z,99546.48
2019-02-26T19:16:06.289Z,99544.92
2019-02-26T19:20:14.951Z,99541.54
2019-02-26T19:24:20.492Z,99541.11
2019-02-26T19:28:26.441Z,99541.68
2019-02-26T19:32:32.509Z,99536.95
2019-02-26T19:36:37.391Z,99542.27
2019-02-26T19:40:54.349Z,99541.47
2019-02-26T19:44:59.239Z,99542.77
2019-02-26T19:49:05.713Z,99538.48
2019-02-26T19:53:10.875Z,99541.53
2019-02-26T19:57:15.697Z,99542.84
2019-02-26T20:01:20.594Z,99541.98
2019-02-26T20:05:25.487Z,99546.33
2019-02-26T20:09:30.393Z,99533.73
2019-02-26T20:13:35.287Z,99529.86
2019-02-26T20:17:40.252Z,99531.65
2019-02-26T20:21:45.141Z,99532.09
2019-02-26T20:25:50.041Z,99534.27
2019-02-26T20:29:54.937Z,99533.00
2019-02-26T20:33:59.830Z,99537.75
2019-02-26T20:38:04.704Z,99531.69
2019-02-26T20:42:09.611Z,99529.50
2019-02-26T20:46:14.504Z,99528.63
2019-02-26T20:50:21.090Z,99525.16
2019-02-26T20:54:26.029Z,99524.71
2019-02-26T20:58:30.924Z,99524.27
2019-02-26T21:02:35.811Z,99522.11
2019-02-26T21:06:40.712Z,99518.66
2019-02-26T21:10:45.875Z,99526.02
2019-02-26T21:14:52.192Z,99521.25
2019-02-26T21:18:57.084Z,99526.00
2019-02-26T21:23:01.969Z,99522.05
2019-02-26T21:27:06.854Z,99513.39
2019-02-26T21:31:11.744Z,99520.30
2019-02-26T21:35:20.194Z,99517.60
2019-02-26T21:39:23.212Z,99513.26
2019-02-26T21:43:28.104Z,99508.47
2019-02-26T21:47:33.008Z,99503.70
2019-02-26T21:51:37.903Z,99504.54
2019-02-26T21:55:44.332Z,99505.34
2019-02-26T21:59:50.130Z,99508.33
2019-02-26T22:03:58.476Z,99511.84
2019-02-26T22:08:02.774Z,99501.86
2019-02-26T22:12:07.660Z,99507.45
2019-02-26T22:16:14.947Z,99504.31
2019-02-26T22:20:35.504Z,99509.39
2019-02-26T22:24:26.556Z,99511.13
2019-02-26T22:28:31.449Z,99515.08
2019-02-26T22:32:36.334Z,99512.94
2019-02-26T22:36:41.220Z,99507.26
2019-02-26T22:40:46.103Z,99508.89
2019-02-26T22:44:54.564Z,99504.13
2019-02-26T22:48:58.648Z,99500.62
2019-02-26T22:53:04.089Z,99498.02
2019-02-26T22:57:09.494Z,99495.44
2019-02-26T23:01:30.281Z,99486.81
2019-02-26T23:05:31.905Z,99489.41
2019-02-26T23:09:37.410Z,99482.86
2019-02-26T23:13:43.534Z,99484.92
2019-02-26T23:17:48.602Z,99480.11
2019-02-26T23:21:53.484Z,99476.55
2019-02-26T23:25:58.440Z,99470.88
2019-02-26T23:30:05.639Z,99469.13
2019-02-26T23:34:11.904Z,99469.91
2019-02-26T23:38:16.794Z,99467.24
2019-02-26T23:42:21.680Z,99464.62
2019-02-26T23:46:29.577Z,99460.69
2019-02-26T23:50:34.228Z,99461.97
2019-02-26T23:54:39.934Z,99465.95
2019-02-26T23:58:45.285Z,99463.77
